createdAt,value
2023-11-21T00:00:38.247Z,29.25
2023-11-21T00:03:05.540Z,24.33
2023-11-21T00:05:32.692Z,29.30
2023-11-21T00:07:59.823Z,27.42
2023-11-21T00:10:27.870Z,27.85
2023-11-21T00:12:56.186Z,24.02
2023-11-21T00:15:23.310Z,23.90
2023-11-21T00:17:50.752Z,24.90
2023-11-21T00:20:17.946Z,27.75
2023-11-21T00:22:45.085Z,26.85
2023-11-21T00:25:16.233Z,31.88
2023-11-21T00:27:43.387Z,26.00
2023-11-21T00:30:11.351Z,27.38
2023-11-21T00:32:39.101Z,30.35
2023-11-21T00:35:07.100Z,32.10
2023-11-21T00:37:34.317Z,28.20
2023-11-21T00:40:05.946Z,31.77
2023-11-21T00:42:35.744Z,33.97
2023-11-21T00:45:03.275Z,28.92
2023-11-21T00:47:30.620Z,28.45
2023-11-21T00:49:58.028Z,32.55
2023-11-21T00:52:25.117Z,28.13
2023-11-21T00:54:52.825Z,35.50
2023-11-21T00:57:19.971Z,27.90
2023-11-21T00:59:46.916Z,32.35
2023-11-21T01:02:14.014Z,31.70
2023-11-21T01:04:41.251Z,33.55
2023-11-21T01:07:08.341Z,29.08
2023-11-21T01:09:35.403Z,32.95
2023-11-21T01:12:02.452Z,29.60
2023-11-21T01:14:29.567Z,32.65
2023-11-21T01:16:58.835Z,35.97
2023-11-21T01:19:26.125Z,35.53
2023-11-21T01:21:54.082Z,36.17
2023-11-21T01:24:21.053Z,38.45
2023-11-21T01:26:48.042Z,37.60
2023-11-21T01:29:16.174Z,32.28
2023-11-21T01:31:43.443Z,37.20
2023-11-21T01:34:10.652Z,38.08
2023-11-21T01:36:37.724Z,32.35
2023-11-21T01:39:09.459Z,38.20
2023-11-21T01:41:36.617Z,35.58
2023-11-21T01:44:04.049Z,41.20
2023-11-21T01:46:31.617Z,39.10
2023-11-21T01:48:58.668Z,40.17
2023-11-21T01:51:27.721Z,44.78
2023-11-21T01:53:55.266Z,56.90
2023-11-21T01:56:22.595Z,50.00
2023-11-21T01:58:49.745Z,47.63
2023-11-21T02:01:16.963Z,47.15
2023-11-21T02:03:44.187Z,44.90
2023-11-21T02:06:11.273Z,48.10
2023-11-21T02:08:39.063Z,50.60
2023-11-21T02:11:07.401Z,54.00
2023-11-21T02:13:34.558Z,55.33
2023-11-21T02:16:02.513Z,64.57
2023-11-21T02:18:30.045Z,56.80
2023-11-21T02:20:57.994Z,68.22
2023-11-21T02:23:29.802Z,67.30
2023-11-21T02:25:57.426Z,63.63
2023-11-21T02:28:27.315Z,61.58
2023-11-21T02:30:59.211Z,71.65
2023-11-21T02:33:26.614Z,66.28
2023-11-21T02:35:56.014Z,59.97
2023-11-21T02:38:23.335Z,72.60
2023-11-21T02:40:50.876Z,67.93
2023-11-21T02:43:18.131Z,84.10
2023-11-21T02:45:46.196Z,85.40
2023-11-21T02:48:13.831Z,280.00
2023-11-21T02:50:41.025Z,73.82
2023-11-21T02:53:08.366Z,74.03
2023-11-21T02:55:36.014Z,188.80
2023-11-21T02:58:04.993Z,56.55
2023-11-21T03:00:32.056Z,187.70
2023-11-21T03:02:59.504Z,120.55
2023-11-21T03:05:27.163Z,401.17
2023-11-21T03:07:54.218Z,80.63
2023-11-21T03:10:21.319Z,78.38
2023-11-21T03:12:48.428Z,143.43
2023-11-21T03:15:15.971Z,135.73
2023-11-21T03:17:44.156Z,95.57
2023-11-21T03:20:13.097Z,134.23
2023-11-21T03:22:40.252Z,411.80
2023-11-21T03:25:12.124Z,356.33
2023-11-21T03:27:40.218Z,220.05
2023-11-21T03:30:10.559Z,157.45
2023-11-21T03:32:38.223Z,101.43
2023-11-21T03:35:07.194Z,84.75
2023-11-21T03:37:34.583Z,84.40
2023-11-21T03:40:02.134Z,103.30
2023-11-21T03:42:29.199Z,67.93
2023-11-21T03:44:56.315Z,53.25
2023-11-21T03:47:23.636Z,88.15
2023-11-21T03:49:51.012Z,102.68
2023-11-21T03:52:18.581Z,59.92
2023-11-21T03:54:46.132Z,53.58
2023-11-21T03:57:13.401Z,91.13
2023-11-21T03:59:44.854Z,74.80
2023-11-21T04:02:11.942Z,73.28
2023-11-21T04:04:39.653Z,89.72
2023-11-21T04:07:06.794Z,85.80
2023-11-21T04:09:33.974Z,97.15
2023-11-21T04:12:01.114Z,89.35
2023-11-21T04:14:28.335Z,88.80
2023-11-21T04:16:56.237Z,218.75
2023-11-21T04:19:23.460Z,76.75
2023-11-21T04:21:50.991Z,86.45
2023-11-21T04:24:18.389Z,89.43
2023-11-21T04:26:46.293Z,69.25
2023-11-21T04:29:13.479Z,67.25
2023-11-21T04:31:40.625Z,54.63
2023-11-21T04:34:07.769Z,55.53
2023-11-21T04:36:36.057Z,183.68
2023-11-21T04:39:03.464Z,102.40
2023-11-21T04:41:32.590Z,107.13
2023-11-21T04:44:01.934Z,108.15
2023-11-21T04:46:29.374Z,226.85
2023-11-21T04:48:56.525Z,104.57
2023-11-21T04:51:23.600Z,79.45
2023-11-21T04:53:50.646Z,99.30
2023-11-21T04:56:17.672Z,97.25
2023-11-21T04:58:45.360Z,84.57
2023-11-21T05:01:13.084Z,65.93
2023-11-21T05:03:40.341Z,119.57
2023-11-21T05:06:10.506Z,125.85
2023-11-21T05:08:38.358Z,69.80
2023-11-21T05:11:05.667Z,91.45
2023-11-21T05:13:34.692Z,93.45
2023-11-21T05:16:05.191Z,81.15
2023-11-21T05:18:32.220Z,77.57
2023-11-21T05:20:59.446Z,98.57
2023-11-21T05:23:26.467Z,55.30
2023-11-21T05:25:53.658Z,62.78
2023-11-21T05:28:20.960Z,71.25
2023-11-21T05:32:26.358Z,69.28
2023-11-21T05:34:54.079Z,48.28
2023-11-21T05:37:21.218Z,56.03
2023-11-21T05:39:48.278Z,41.45
2023-11-21T05:42:15.285Z,49.13
2023-11-21T05:44:44.559Z,43.72
2023-11-21T05:47:11.724Z,41.13
2023-11-21T05:49:38.762Z,43.80
2023-11-21T05:52:06.574Z,65.75
2023-11-21T05:54:33.938Z,69.50
2023-11-21T05:57:01.040Z,48.00
2023-11-21T05:59:28.109Z,48.78
2023-11-21T06:01:55.211Z,41.70
2023-11-21T06:06:53.916Z,45.22
2023-11-21T06:09:21.905Z,39.80
2023-11-21T06:11:48.947Z,38.58
2023-11-21T06:14:19.193Z,42.63
2023-11-21T06:16:46.539Z,38.28
2023-11-21T06:19:13.709Z,33.22
2023-11-21T06:21:40.798Z,37.03
2023-11-21T06:24:08.391Z,39.33
2023-11-21T06:26:35.663Z,42.33
2023-11-21T06:29:04.227Z,41.53
2023-11-21T06:31:31.662Z,37.53
2023-11-21T06:34:00.841Z,37.75
2023-11-21T06:36:28.054Z,41.00
2023-11-21T06:38:55.072Z,37.90
2023-11-21T06:41:24.733Z,34.20
2023-11-21T06:43:51.902Z,39.90
2023-11-21T06:46:20.952Z,36.88
2023-11-21T06:48:49.784Z,40.60
2023-11-21T06:51:16.943Z,39.28
2023-11-21T06:53:44.639Z,37.65
2023-11-21T06:56:21.251Z,40.38
2023-11-21T06:58:48.507Z,40.13
2023-11-21T07:01:16.185Z,43.47
2023-11-21T07:03:45.550Z,40.80
2023-11-21T07:06:12.771Z,36.47
2023-11-21T07:08:39.776Z,32.80
2023-11-21T07:11:08.441Z,32.70
2023-11-21T07:13:35.433Z,32.90
2023-11-21T07:16:02.609Z,28.10
2023-11-21T07:18:29.658Z,32.60
2023-11-21T07:20:59.954Z,37.15
2023-11-21T07:23:28.786Z,34.42
2023-11-21T07:25:55.975Z,35.40
2023-11-21T07:28:24.581Z,33.85
2023-11-21T07:30:51.643Z,31.65
2023-11-21T07:33:18.810Z,36.00
2023-11-21T07:35:45.841Z,33.28
2023-11-21T07:38:12.835Z,32.83
2023-11-21T07:40:44.641Z,38.83
2023-11-21T07:43:11.672Z,33.92
2023-11-21T07:45:38.783Z,32.58
2023-11-21T07:48:08.304Z,32.08
2023-11-21T07:50:35.255Z,34.28
2023-11-21T07:53:02.356Z,36.90
2023-11-21T07:55:33.243Z,31.77
2023-11-21T07:58:00.961Z,33.97
2023-11-21T08:00:31.320Z,33.60
2023-11-21T08:02:59.406Z,38.03
2023-11-21T08:05:32.818Z,145.38
2023-11-21T08:08:07.280Z,41.78
2023-11-21T08:10:34.843Z,36.03
2023-11-21T08:13:02.955Z,39.47
2023-11-21T08:15:30.123Z,70.00
2023-11-21T08:18:00.103Z,49.63
2023-11-21T08:20:27.332Z,43.45
2023-11-21T08:22:54.430Z,46.00
2023-11-21T08:25:21.707Z,39.20
2023-11-21T08:27:49.014Z,39.63
2023-11-21T08:30:18.027Z,34.42
2023-11-21T08:32:45.141Z,55.70
2023-11-21T08:35:13.484Z,75.63
2023-11-21T08:37:40.869Z,39.08
2023-11-21T08:40:13.545Z,41.88
2023-11-21T08:42:40.613Z,36.63
2023-11-21T08:45:10.042Z,38.90
2023-11-21T08:47:37.726Z,36.17
2023-11-21T08:50:07.295Z,38.20
2023-11-21T08:52:35.620Z,34.72
2023-11-21T08:55:08.777Z,39.83
2023-11-21T08:57:47.598Z,30.60
2023-11-21T09:00:17.889Z,28.73
2023-11-21T09:02:46.139Z,30.80
2023-11-21T09:05:15.262Z,32.95
2023-11-21T09:07:43.677Z,35.40
2023-11-21T09:10:11.588Z,29.13
2023-11-21T09:12:39.473Z,26.92
2023-11-21T09:15:08.877Z,23.92
2023-11-21T09:17:36.471Z,26.42
2023-11-21T09:20:06.569Z,24.02
2023-11-21T09:22:34.538Z,22.90
2023-11-21T09:25:01.750Z,34.95
2023-11-21T09:27:28.758Z,50.45
2023-11-21T09:29:56.390Z,25.77
2023-11-21T09:32:23.491Z,24.20
2023-11-21T09:34:51.556Z,21.10
2023-11-21T09:37:20.162Z,20.70
2023-11-21T09:39:49.084Z,19.88
2023-11-21T09:42:31.457Z,29.75
2023-11-21T09:45:19.051Z,20.33
2023-11-21T09:47:47.805Z,28.60
2023-11-21T09:50:20.072Z,21.52
2023-11-21T09:53:11.946Z,21.70
2023-11-21T09:55:43.205Z,26.63
2023-11-21T09:58:13.222Z,28.58
2023-11-21T10:00:48.774Z,27.17
2023-11-21T10:03:17.326Z,29.42
2023-11-21T10:05:47.383Z,24.85
2023-11-21T10:08:15.257Z,23.50
2023-11-21T10:10:49.755Z,21.05
2023-11-21T10:13:19.502Z,25.35
2023-11-21T10:15:52.571Z,26.52
2023-11-21T10:18:20.626Z,24.83
2023-11-21T10:20:53.440Z,26.60
2023-11-21T10:23:24.144Z,27.60
2023-11-21T10:25:54.197Z,31.25
2023-11-21T10:28:22.702Z,27.88
2023-11-21T10:30:50.078Z,28.65
2023-11-21T10:33:17.850Z,27.13
2023-11-21T10:35:54.758Z,30.02
2023-11-21T10:38:24.432Z,30.42
2023-11-21T10:40:52.365Z,34.40
2023-11-21T10:43:19.856Z,31.73
2023-11-21T10:45:47.415Z,33.72
2023-11-21T10:48:19.199Z,35.35
2023-11-21T10:50:48.566Z,35.97
2023-11-21T10:53:16.390Z,35.08
2023-11-21T10:55:45.889Z,38.78
2023-11-21T10:58:15.829Z,40.50
2023-11-21T11:00:46.430Z,41.85
2023-11-21T11:03:16.849Z,45.92
2023-11-21T11:05:53.349Z,39.95
2023-11-21T11:08:28.296Z,35.95
2023-11-21T11:10:57.122Z,38.80
2023-11-21T11:13:25.373Z,37.45
2023-11-21T11:16:03.410Z,40.45
2023-11-21T11:18:31.134Z,36.05
2023-11-21T11:21:45.062Z,42.08
2023-11-21T11:24:51.729Z,38.72
2023-11-21T11:27:49.734Z,37.00
2023-11-21T11:31:18.304Z,37.40
2023-11-21T11:34:05.284Z,37.35
2023-11-21T11:36:50.274Z,35.85
2023-11-21T11:39:36.567Z,30.92
2023-11-21T11:42:09.196Z,32.97
2023-11-21T11:44:48.771Z,36.47
2023-11-21T11:47:34.083Z,38.22
2023-11-21T11:50:19.114Z,37.05
2023-11-21T11:55:19.496Z,35.53
2023-11-21T12:00:27.562Z,39.00
2023-11-21T12:03:00.557Z,45.25
2023-11-21T12:05:34.117Z,40.00
2023-11-21T12:08:04.952Z,45.80
2023-11-21T12:10:38.209Z,43.25
2023-11-21T12:13:11.339Z,49.40
2023-11-21T12:15:40.667Z,39.08
2023-11-21T12:18:08.865Z,38.67
2023-11-21T12:20:40.360Z,38.88
2023-11-21T12:23:10.748Z,39.22
2023-11-21T12:25:38.540Z,43.05
2023-11-21T12:28:07.123Z,42.35
2023-11-21T12:30:39.103Z,47.67
2023-11-21T12:33:10.117Z,44.50
2023-11-21T12:35:37.779Z,40.95
2023-11-21T12:38:06.484Z,44.75
2023-11-21T12:40:33.906Z,39.05
2023-11-21T12:43:06.128Z,37.95
2023-11-21T12:45:33.871Z,37.22
2023-11-21T12:48:08.463Z,37.55
2023-11-21T12:50:37.687Z,35.33
2023-11-21T12:53:13.918Z,32.30
2023-11-21T12:55:43.373Z,29.83
2023-11-21T12:58:12.788Z,32.70
2023-11-21T13:00:44.661Z,27.58
2023-11-21T13:03:18.499Z,30.38
2023-11-21T13:05:53.183Z,29.17
2023-11-21T13:08:24.061Z,31.95
2023-11-21T13:10:58.677Z,34.50
2023-11-21T13:13:30.196Z,24.70
2023-11-21T13:16:07.223Z,22.55
2023-11-21T13:18:34.724Z,20.80
2023-11-21T13:21:16.761Z,20.73
2023-11-21T13:23:47.096Z,19.98
2023-11-21T13:26:15.853Z,20.83
2023-11-21T13:28:47.697Z,20.88
2023-11-21T13:31:28.223Z,18.55
2023-11-21T13:34:05.502Z,20.63
2023-11-21T13:36:36.251Z,19.73
2023-11-21T13:39:09.847Z,22.33
2023-11-21T13:41:39.260Z,21.25
2023-11-21T13:44:28.337Z,25.02
2023-11-21T13:46:58.665Z,20.95
2023-11-21T13:49:27.790Z,19.85
2023-11-21T13:51:56.354Z,21.85
2023-11-21T13:54:26.000Z,20.13
2023-11-21T13:56:53.091Z,18.58
2023-11-21T13:59:26.478Z,19.42
2023-11-21T14:01:57.989Z,21.23
2023-11-21T14:04:33.968Z,22.73
2023-11-21T14:07:12.112Z,22.15
2023-11-21T14:09:45.286Z,24.17
2023-11-21T14:12:14.458Z,22.10
2023-11-21T14:14:41.664Z,21.92
2023-11-21T14:17:08.838Z,24.30
2023-11-21T14:19:40.071Z,24.23
2023-11-21T14:22:11.014Z,25.92
2023-11-21T14:24:38.534Z,24.38
2023-11-21T14:27:06.650Z,24.30
2023-11-21T14:29:39.746Z,26.65
2023-11-21T14:32:09.024Z,25.40
2023-11-21T14:34:36.452Z,26.92
2023-11-21T14:37:06.811Z,27.92
2023-11-21T14:39:38.977Z,21.23
2023-11-21T14:42:09.022Z,21.27
2023-11-21T14:44:39.864Z,25.48
2023-11-21T14:47:14.094Z,21.00
2023-11-21T14:49:54.536Z,20.95
2023-11-21T14:52:35.212Z,26.77
2023-11-21T14:55:25.928Z,23.27
2023-11-21T14:57:53.140Z,24.38
2023-11-21T15:00:34.077Z,23.55
2023-11-21T15:03:03.079Z,20.42
2023-11-21T15:05:30.843Z,26.35
2023-11-21T15:08:12.199Z,26.42
2023-11-21T15:10:47.065Z,26.98
2023-11-21T15:13:15.987Z,22.52
2023-11-21T15:15:43.839Z,22.75
2023-11-21T15:18:13.541Z,20.85
2023-11-21T15:20:42.485Z,21.55
2023-11-21T15:23:10.315Z,23.45
2023-11-21T15:25:37.518Z,18.83
2023-11-21T15:28:05.868Z,21.48
2023-11-21T15:30:34.252Z,19.13
2023-11-21T15:33:04.594Z,20.63
2023-11-21T15:35:33.714Z,19.13
2023-11-21T15:38:01.109Z,15.82
2023-11-21T15:40:28.455Z,17.17
2023-11-21T15:42:55.564Z,14.77
2023-11-21T15:45:25.633Z,18.17
2023-11-21T15:47:54.769Z,18.00
2023-11-21T15:50:22.262Z,16.60
2023-11-21T15:52:57.170Z,18.35
2023-11-21T15:55:26.962Z,17.38
2023-11-21T15:57:54.192Z,18.75
2023-11-21T16:00:23.819Z,15.77
2023-11-21T16:02:51.574Z,15.98
2023-11-21T16:05:19.219Z,18.30
2023-11-21T16:07:48.231Z,16.75
2023-11-21T16:10:18.581Z,18.35
2023-11-21T16:12:46.103Z,18.02
2023-11-21T16:15:13.319Z,21.23
2023-11-21T16:17:42.907Z,20.60
2023-11-21T16:20:13.650Z,20.35
2023-11-21T16:22:41.965Z,20.92
2023-11-21T16:25:13.582Z,21.25
2023-11-21T16:27:41.818Z,21.63
2023-11-21T16:30:13.098Z,21.23
2023-11-21T16:32:42.656Z,21.35
2023-11-21T16:35:12.755Z,18.20
2023-11-21T16:37:40.653Z,18.15
2023-11-21T16:40:10.207Z,14.50
2023-11-21T16:42:39.607Z,14.00
2023-11-21T16:45:09.068Z,13.38
2023-11-21T16:47:36.529Z,13.60
2023-11-21T16:50:04.646Z,11.85
2023-11-21T16:52:32.554Z,11.43
2023-11-21T16:55:03.760Z,12.02
2023-11-21T16:57:34.382Z,10.53
2023-11-21T17:00:05.173Z,11.52
2023-11-21T17:02:32.263Z,10.65
2023-11-21T17:04:59.708Z,10.15
2023-11-21T17:07:27.442Z,11.70
2023-11-21T17:09:54.442Z,12.85
2023-11-21T17:12:21.449Z,12.13
2023-11-21T17:14:50.322Z,16.98
2023-11-21T17:17:18.012Z,13.10
2023-11-21T17:19:45.591Z,15.18
2023-11-21T17:22:13.151Z,11.90
2023-11-21T17:24:40.233Z,12.20
2023-11-21T17:27:07.373Z,12.65
2023-11-21T17:29:34.482Z,11.95
2023-11-21T17:32:01.595Z,14.18
2023-11-21T17:34:28.611Z,13.60
2023-11-21T17:36:56.815Z,11.30
2023-11-21T17:39:24.554Z,12.00
2023-11-21T17:41:51.657Z,12.82
2023-11-21T17:44:18.848Z,12.38
2023-11-21T17:46:46.005Z,13.88
2023-11-21T17:49:13.416Z,12.57
2023-11-21T17:51:42.364Z,12.68
2023-11-21T17:54:09.912Z,14.90
2023-11-21T17:56:37.427Z,13.77
2023-11-21T17:59:05.519Z,13.20
2023-11-21T18:01:40.634Z,16.08
2023-11-21T18:04:08.297Z,15.38
2023-11-21T18:06:35.485Z,14.38
2023-11-21T18:09:04.529Z,14.30
2023-11-21T18:11:31.872Z,14.68
2023-11-21T18:13:59.077Z,14.23
2023-11-21T18:16:26.357Z,15.07
2023-11-21T18:18:53.426Z,17.58
2023-11-21T18:21:20.677Z,15.77
2023-11-21T18:23:47.775Z,18.35
2023-11-21T18:26:19.014Z,16.60
2023-11-21T18:28:46.846Z,17.40
2023-11-21T18:31:16.021Z,16.70
2023-11-21T18:33:43.533Z,16.70
2023-11-21T18:36:10.772Z,15.52
2023-11-21T18:38:39.871Z,15.68
2023-11-21T18:41:07.136Z,17.55
2023-11-21T18:43:35.711Z,17.25
2023-11-21T18:46:04.810Z,16.63
2023-11-21T18:48:31.901Z,16.27
2023-11-21T18:50:58.985Z,16.77
2023-11-21T18:53:29.375Z,19.25
2023-11-21T18:55:57.959Z,17.20
2023-11-21T18:58:25.289Z,15.32
2023-11-21T19:00:53.140Z,16.52
2023-11-21T19:03:20.704Z,16.13
2023-11-21T19:05:47.807Z,15.93
2023-11-21T19:08:14.993Z,15.27
2023-11-21T19:10:42.839Z,14.25
2023-11-21T19:13:10.027Z,16.65
2023-11-21T19:15:37.337Z,16.58
2023-11-21T19:18:04.759Z,17.20
2023-11-21T19:20:33.348Z,15.77
2023-11-21T19:23:00.479Z,17.58
2023-11-21T19:25:27.439Z,18.20
2023-11-21T19:27:54.418Z,16.30
2023-11-21T19:30:21.505Z,17.35
2023-11-21T19:32:49.970Z,16.65
2023-11-21T19:35:21.075Z,17.08
2023-11-21T19:37:48.646Z,16.92
2023-11-21T19:40:23.666Z,16.33
2023-11-21T19:42:51.184Z,17.05
2023-11-21T19:45:20.052Z,20.10
2023-11-21T19:47:47.113Z,18.95
2023-11-21T19:50:14.408Z,18.65
2023-11-21T19:52:43.532Z,17.35
2023-11-21T19:55:11.322Z,18.60
2023-11-21T19:57:40.037Z,19.83
2023-11-21T20:00:12.516Z,16.58
2023-11-21T20:02:43.481Z,18.25
2023-11-21T20:05:16.703Z,20.45
2023-11-21T20:07:44.222Z,18.58
2023-11-21T20:10:11.651Z,20.35
2023-11-21T20:12:38.762Z,18.80
2023-11-21T20:15:07.079Z,19.45
2023-11-21T20:17:34.250Z,17.88
2023-11-21T20:20:01.423Z,18.83
2023-11-21T20:22:28.498Z,17.95
2023-11-21T20:24:55.508Z,17.45
2023-11-21T20:27:22.534Z,15.65
2023-11-21T20:29:49.735Z,18.40
2023-11-21T20:32:17.980Z,17.45
2023-11-21T20:34:51.768Z,16.77
2023-11-21T20:37:18.847Z,16.95
2023-11-21T20:39:47.282Z,18.48
2023-11-21T20:42:16.464Z,16.70
2023-11-21T20:44:43.456Z,17.60
2023-11-21T20:47:12.632Z,16.65
2023-11-21T20:49:48.004Z,17.00
2023-11-21T20:52:16.262Z,18.67
2023-11-21T20:54:43.262Z,18.02
2023-11-21T20:57:11.057Z,16.08
2023-11-21T20:59:38.197Z,16.83
2023-11-21T21:02:07.436Z,16.65
2023-11-21T21:04:34.606Z,16.90
2023-11-21T21:07:01.620Z,19.77
2023-11-21T21:09:28.661Z,17.90
2023-11-21T21:11:55.738Z,16.90
2023-11-21T21:14:24.937Z,20.67
2023-11-21T21:16:51.970Z,18.75
2023-11-21T21:19:19.550Z,20.75
2023-11-21T21:21:46.943Z,22.55
2023-11-21T21:24:14.064Z,21.77
2023-11-21T21:26:41.409Z,22.67
2023-11-21T21:29:09.868Z,25.30
2023-11-21T21:31:37.358Z,33.65
2023-11-21T21:34:04.834Z,37.22
2023-11-21T21:36:33.188Z,32.42
2023-11-21T21:39:00.791Z,27.58
2023-11-21T21:41:27.836Z,27.63
2023-11-21T21:43:54.929Z,27.63
2023-11-21T21:46:22.263Z,29.13
2023-11-21T21:48:49.360Z,28.30
2023-11-21T21:51:18.212Z,24.42
2023-11-21T21:53:46.741Z,24.30
2023-11-21T21:56:14.845Z,26.05
2023-11-21T21:58:42.216Z,25.08
2023-11-21T22:01:09.756Z,23.95
2023-11-21T22:03:37.434Z,22.85
2023-11-21T22:06:05.404Z,25.60
2023-11-21T22:08:34.453Z,27.00
2023-11-21T22:11:03.363Z,25.58
2023-11-21T22:13:30.384Z,25.50
2023-11-21T22:15:59.395Z,26.83
2023-11-21T22:18:26.436Z,33.08
2023-11-21T22:20:53.441Z,29.42
2023-11-21T22:23:20.667Z,31.20
2023-11-21T22:25:48.301Z,33.60
2023-11-21T22:28:15.293Z,32.05
2023-11-21T22:30:42.421Z,31.08
2023-11-21T22:33:09.554Z,32.67
2023-11-21T22:35:36.647Z,32.13
2023-11-21T22:38:03.894Z,32.80
2023-11-21T22:40:30.997Z,34.83
2023-11-21T22:42:57.929Z,34.83
2023-11-21T22:45:25.268Z,35.60
2023-11-21T22:47:52.723Z,36.50
2023-11-21T22:50:19.864Z,34.97
2023-11-21T22:52:47.363Z,34.95
2023-11-21T22:55:15.771Z,43.70
2023-11-21T22:57:42.863Z,34.47
2023-11-21T23:00:13.699Z,35.13
2023-11-21T23:02:41.549Z,41.13
2023-11-21T23:05:11.072Z,37.63
2023-11-21T23:07:38.452Z,33.38
2023-11-21T23:10:08.602Z,37.97
2023-11-21T23:12:36.691Z,35.53
2023-11-21T23:15:04.187Z,33.35
2023-11-21T23:17:31.335Z,34.55
2023-11-21T23:19:58.480Z,36.08
2023-11-21T23:22:27.666Z,35.33
2023-11-21T23:24:54.610Z,36.10
2023-11-21T23:27:22.660Z,40.28
2023-11-21T23:29:54.579Z,22.40
2023-11-21T23:32:24.573Z,37.20
2023-11-21T23:34:51.866Z,44.63
2023-11-21T23:37:18.925Z,36.72
2023-11-21T23:39:46.010Z,39.53
2023-11-21T23:42:13.070Z,39.40
2023-11-21T23:44:40.283Z,44.53
2023-11-21T23:47:07.293Z,39.53
2023-11-21T23:49:36.316Z,41.55
2023-11-21T23:52:04.084Z,42.03
2023-11-21T23:54:31.206Z,39.70
2023-11-21T23:56:59.189Z,23.80
2023-11-21T23:59:26.381Z,39.40
